Time;durP1;ratioP1;P1;durP2;ratioP2;P2;SDS_P1;SDS_P2;PMS_P1;PMS_P2;Temp;Humidity;BMP_temperature;BMP_pressure;BME280_temperature;BME280_humidity;BME280_pressure;Samples;Min_cycle;Max_cycle;Signal;HPM_P1;HPM_P2
2023/11/15 00:00:06;;;;;;;5.00;0.60;;;;;;;7.08;100.00;99828.59;105654;1256;60574;-54
2023/11/15 00:02:34;;;;;;;1.50;0.50;;;;;;;7.07;100.00;99831.12;105706;1257;73940;-55
2023/11/15 00:05:03;;;;;;;3.20;0.50;;;;;;;7.07;100.00;99825.80;106673;1256;66657;-57
2023/11/15 00:07:31;;;;;;;1.60;0.60;;;;;;;7.06;100.00;99824.23;106414;1256;73139;-54
2023/11/15 00:09:58;;;;;;;1.70;1.10;;;;;;;7.04;100.00;99825.53;105440;1254;60860;-52
2023/11/15 00:12:26;;;;;;;1.90;0.50;;;;;;;7.04;100.00;99827.69;104983;1254;60701;-52
2023/11/15 00:14:54;;;;;;;2.10;0.70;;;;;;;7.04;100.00;99827.32;104970;1254;72524;-52
2023/11/15 00:17:22;;;;;;;1.10;0.50;;;;;;;7.05;100.00;99822.14;105008;1259;67780;-52
2023/11/15 00:19:51;;;;;;;2.20;0.50;;;;;;;7.04;100.00;99822.88;105253;1260;72712;-53
2023/11/15 00:22:19;;;;;;;2.70;0.60;;;;;;;7.02;100.00;99821.13;105005;1259;61617;-54
2023/11/15 00:24:47;;;;;;;1.40;0.50;;;;;;;7.02;100.00;99819.17;105057;1256;60571;-53
2023/11/15 00:27:14;;;;;;;2.80;0.70;;;;;;;7.01;100.00;99822.42;105094;1259;73920;-54
2023/11/15 00:29:43;;;;;;;1.70;0.60;;;;;;;6.99;100.00;99819.27;105026;1260;65784;-55
2023/11/15 00:32:10;;;;;;;3.10;0.60;;;;;;;6.98;100.00;99820.02;105604;1260;72061;-54
2023/11/15 00:34:38;;;;;;;6.40;0.70;;;;;;;6.96;100.00;99820.26;105007;1256;61027;-53
2023/11/15 00:37:06;;;;;;;1.30;0.60;;;;;;;6.95;100.00;99814.95;104992;1254;60583;-51
2023/11/15 00:39:34;;;;;;;1.80;0.50;;;;;;;6.93;100.00;99809.11;105068;1261;71773;-52
2023/11/15 00:42:03;;;;;;;3.60;0.50;;;;;;;6.91;100.00;99801.14;108720;1258;65729;-52
2023/11/15 00:44:32;;;;;;;5.00;0.70;;;;;;;6.91;100.00;99803.29;108709;1260;72776;-51
2023/11/15 00:46:59;;;;;;;2.10;0.50;;;;;;;6.89;100.00;99801.56;108818;1254;61680;-53
2023/11/15 00:49:28;;;;;;;2.00;0.50;;;;;;;6.88;100.00;99799.13;108812;1254;59100;-53
2023/11/15 00:51:56;;;;;;;2.30;0.50;;;;;;;6.87;100.00;99797.20;108745;1254;73873;-51
2023/11/15 00:54:24;;;;;;;2.20;0.50;;;;;;;6.87;100.00;99797.73;108857;1255;67073;-51
2023/11/15 00:56:55;;;;;;;3.50;0.50;;;;;;;6.86;100.00;99801.68;105544;1260;72766;-49
2023/11/15 00:59:26;;;;;;;2.40;0.40;;;;;;;6.85;100.00;99797.61;108761;1256;60365;-55
2023/11/15 01:02:00;;;;;;;4.90;0.60;;;;;;;6.85;100.00;99790.13;106109;1254;3476959;-56
2023/11/15 01:05:13;;;;;;;2.20;0.60;;;;;;;6.84;100.00;99850.25;102287;1295;600527;-55
2023/11/15 01:07:40;;;;;;;2.30;0.60;;;;;;;6.83;100.00;99929.30;104628;1269;59951;-51
2023/11/15 01:10:09;;;;;;;2.70;0.50;;;;;;;6.81;100.00;99896.88;104634;1272;59558;-53
2023/11/15 01:12:37;;;;;;;1.60;0.50;;;;;;;6.79;100.00;99877.70;108205;1266;72249;-52
2023/11/15 01:15:06;;;;;;;3.10;0.60;;;;;;;6.76;100.00;99858.53;108180;1266;65308;-55
2023/11/15 01:17:34;;;;;;;4.50;0.60;;;;;;;6.74;100.00;99845.92;105075;1271;74406;-51
2023/11/15 01:20:03;;;;;;;2.50;0.60;;;;;;;6.73;100.00;99837.77;105760;1263;62133;-54
2023/11/15 01:22:30;;;;;;;2.00;0.50;;;;;;;6.72;100.00;99822.63;106121;1269;59374;-51
2023/11/15 01:24:58;;;;;;;1.70;0.50;;;;;;;6.71;100.00;99821.78;104834;1269;71993;-53
2023/11/15 01:27:26;;;;;;;3.30;0.60;;;;;;;6.71;100.00;99818.75;104811;1269;67086;-48
2023/11/15 01:29:53;;;;;;;4.20;0.80;;;;;;;6.70;100.00;99818.41;105145;1260;72601;-51
2023/11/15 01:32:20;;;;;;;0.80;0.60;;;;;;;6.70;100.00;99813.09;105360;1261;62432;-53
2023/11/15 01:34:48;;;;;;;2.30;0.90;;;;;;;6.69;100.00;99807.20;105260;1260;59701;-52
2023/11/15 01:37:15;;;;;;;2.50;0.40;;;;;;;6.69;100.00;99804.01;105298;1260;73144;-50
2023/11/15 01:39:43;;;;;;;3.60;0.50;;;;;;;6.69;100.00;99802.59;105307;1261;65604;-55
2023/11/15 01:42:11;;;;;;;3.30;0.50;;;;;;;6.69;100.00;99804.39;105334;1257;72758;-53
2023/11/15 01:44:38;;;;;;;2.20;0.50;;;;;;;6.69;100.00;99803.30;105151;1257;60519;-53
2023/11/15 01:47:06;;;;;;;2.60;0.50;;;;;;;6.68;100.00;99797.63;105164;1261;60091;-53
2023/11/15 01:49:34;;;;;;;1.30;0.60;;;;;;;6.68;100.00;99801.36;104955;1267;71841;-51
2023/11/15 01:52:01;;;;;;;1.20;0.50;;;;;;;6.68;100.00;99801.91;105246;1269;66746;-57
2023/11/15 01:54:29;;;;;;;1.10;0.50;;;;;;;6.67;100.00;99796.95;105009;1264;74297;-53
2023/11/15 01:56:56;;;;;;;1.80;0.60;;;;;;;6.66;100.00;99796.26;104919;1264;61721;-57
2023/11/15 01:59:23;;;;;;;2.00;0.50;;;;;;;6.65;100.00;99785.76;105032;1257;60248;-54
2023/11/15 02:01:51;;;;;;;3.10;0.50;;;;;;;6.65;100.00;99786.85;105104;1266;71890;-51
2023/11/15 02:04:19;;;;;;;2.80;0.60;;;;;;;6.65;100.00;99788.96;105201;1263;65661;-52
2023/11/15 02:06:47;;;;;;;1.60;0.50;;;;;;;6.65;100.00;99788.27;105584;1257;71889;-51
2023/11/15 02:09:14;;;;;;;5.20;0.50;;;;;;;6.64;100.00;99796.30;105228;1264;60617;-54
2023/11/15 02:11:43;;;;;;;1.20;0.50;;;;;;;6.64;100.00;99805.77;105241;1256;60078;-55
2023/11/15 02:14:11;;;;;;;1.50;0.60;;;;;;;6.65;100.00;99807.52;105265;1261;73220;-54
2023/11/15 02:16:38;;;;;;;3.70;0.50;;;;;;;6.64;100.00;99805.41;105013;1257;66457;-52
2023/11/15 02:19:07;;;;;;;1.90;0.40;;;;;;;6.65;100.00;99809.48;105301;1257;71466;-54
2023/11/15 02:21:35;;;;;;;3.10;0.60;;;;;;;6.64;100.00;99807.36;105108;1257;60523;-51
2023/11/15 02:24:03;;;;;;;2.00;0.50;;;;;;;6.63;100.00;99804.20;105052;1261;59961;-55
2023/11/15 02:26:31;;;;;;;3.90;0.50;;;;;;;6.61;100.00;99805.86;105157;1256;72366;-52
2023/11/15 02:29:00;;;;;;;2.10;0.80;;;;;;;6.60;100.00;99811.08;105437;1260;66396;-53
2023/11/15 02:31:27;;;;;;;1.90;0.50;;;;;;;6.59;100.00;99816.44;105184;1261;71734;-58
2023/11/15 02:33:55;;;;;;;2.30;0.50;;;;;;;6.59;100.00;99812.89;105256;1260;62061;-55
2023/11/15 02:36:22;;;;;;;1.80;0.50;;;;;;;6.60;100.00;99807.51;105190;1254;60717;-58
2023/11/15 02:38:49;;;;;;;3.00;0.60;;;;;;;6.62;100.00;99811.55;105097;1260;73059;-52
2023/11/15 02:41:17;;;;;;;2.10;0.60;;;;;;;6.63;100.00;99814.38;105505;1254;65989;-52
2023/11/15 02:43:44;;;;;;;2.10;0.60;;;;;;;6.63;100.00;99814.55;105165;1260;72830;-55
2023/11/15 02:46:17;;;;;;;1.70;0.50;;;;;;;6.64;100.00;99819.69;105136;1260;61783;-58
2023/11/15 02:48:44;;;;;;;1.60;0.60;;;;;;;6.64;100.00;99826.45;105304;1257;59737;-53
2023/11/15 02:51:12;;;;;;;2.00;0.60;;;;;;;6.64;100.00;99822.17;105299;1254;73068;-50
2023/11/15 02:53:39;;;;;;;1.50;0.50;;;;;;;6.65;100.00;99817.69;105219;1260;66109;-51
2023/11/15 02:56:07;;;;;;;2.40;0.50;;;;;;;6.65;100.00;99808.58;105261;1257;71051;-53
2023/11/15 02:58:35;;;;;;;7.40;2.10;;;;;;;6.66;100.00;99809.45;105682;1258;62109;-52
2023/11/15 03:01:06;;;;;;;3.20;0.60;;;;;;;6.67;100.00;99808.89;105269;1260;60345;-55
2023/11/15 03:03:35;;;;;;;3.20;0.50;;;;;;;6.70;100.00;99813.64;106697;1260;73091;-51
2023/11/15 03:06:03;;;;;;;1.60;0.50;;;;;;;6.72;100.00;99819.41;105867;1255;67433;-56
2023/11/15 03:08:31;;;;;;;1.40;0.40;;;;;;;6.74;100.00;99824.34;105917;1260;72379;-53
2023/11/15 03:10:59;;;;;;;2.70;0.60;;;;;;;6.78;100.00;99835.48;105857;1259;61733;-55
2023/11/15 03:13:26;;;;;;;1.90;0.50;;;;;;;6.81;100.00;99844.83;105075;1260;60830;-52
2023/11/15 03:15:55;;;;;;;1.00;0.40;;;;;;;6.84;100.00;99846.14;105110;1254;73680;-53
2023/11/15 03:18:23;;;;;;;1.50;0.60;;;;;;;6.87;100.00;99850.18;107838;1254;66248;-54
2023/11/15 03:20:51;;;;;;;3.80;0.90;;;;;;;6.88;100.00;99847.11;105001;1258;72746;-52
2023/11/15 03:23:19;;;;;;;3.90;0.60;;;;;;;6.91;100.00;99849.86;105332;1257;60845;-53
2023/11/15 03:25:47;;;;;;;2.50;0.50;;;;;;;6.94;100.00;99855.48;105051;1261;59787;-54
2023/11/15 03:28:14;;;;;;;1.30;0.60;;;;;;;6.96;100.00;99854.53;105037;1265;71839;-51
2023/11/15 03:30:41;;;;;;;1.60;0.50;;;;;;;6.99;100.00;99862.45;105286;1256;65916;-54
2023/11/15 03:33:09;;;;;;;4.00;1.30;;;;;;;7.01;100.00;99865.25;105179;1260;72744;-55
2023/11/15 03:35:36;;;;;;;1.00;0.50;;;;;;;7.01;100.00;99865.60;108875;1256;60393;-54
2023/11/15 03:38:04;;;;;;;6.00;0.50;;;;;;;7.00;100.00;99863.48;108820;1254;60663;-53
2023/11/15 03:40:31;;;;;;;1.90;0.80;;;;;;;6.98;100.00;99870.31;108881;1259;73582;-52
2023/11/15 03:42:59;;;;;;;3.70;0.60;;;;;;;6.97;100.00;99870.39;108855;1254;67022;-52
2023/11/15 03:45:26;;;;;;;2.70;0.60;;;;;;;6.94;100.00;99873.48;108937;1254;72765;-53
2023/11/15 03:47:53;;;;;;;2.50;0.60;;;;;;;6.93;100.00;99866.94;108759;1254;60398;-57
2023/11/15 03:50:21;;;;;;;2.40;0.50;;;;;;;6.90;100.00;99871.14;108922;1254;60715;-51
2023/11/15 03:52:49;;;;;;;1.30;0.50;;;;;;;6.88;100.00;99872.27;108728;1254;73060;-55
2023/11/15 03:55:16;;;;;;;2.00;0.50;;;;;;;6.87;100.00;99873.55;108826;1254;66098;-51
2023/11/15 03:57:46;;;;;;;1.70;0.50;;;;;;;6.86;100.00;99881.08;108859;1256;73197;-51
2023/11/15 04:00:16;;;;;;;2.40;0.50;;;;;;;6.84;100.00;99884.51;108461;1254;61708;-53
2023/11/15 04:02:45;;;;;;;1.50;0.60;;;;;;;6.83;100.00;99888.09;108825;1254;63751;-55
2023/11/15 04:05:15;;;;;;;2.40;0.80;;;;;;;6.82;100.00;99882.59;108892;1254;72272;-53
2023/11/15 04:07:43;;;;;;;5.10;0.50;;;;;;;6.81;100.00;99884.05;108840;1254;65634;-57
2023/11/15 04:10:10;;;;;;;2.60;0.60;;;;;;;6.81;100.00;99875.51;108771;1254;73190;-51
2023/11/15 04:12:38;;;;;;;2.70;1.10;;;;;;;6.78;100.00;99870.23;105267;1262;60455;-55
2023/11/15 04:15:08;;;;;;;2.40;0.50;;;;;;;6.77;100.00;99871.88;105060;1255;60231;-54
2023/11/15 04:17:37;;;;;;;1.40;0.60;;;;;;;6.76;100.00;99878.33;105717;1254;73134;-55
2023/11/15 04:20:06;;;;;;;1.10;0.60;;;;;;;6.75;100.00;99879.06;104990;1264;65922;-53
2023/11/15 04:22:34;;;;;;;2.30;0.50;;;;;;;6.74;100.00;99881.23;106666;1259;73111;-55
2023/11/15 04:25:02;;;;;;;2.00;0.70;;;;;;;6.74;100.00;99871.08;106492;1258;62614;-56
2023/11/15 04:27:30;;;;;;;1.90;0.60;;;;;;;6.74;100.00;99873.77;105284;1260;60670;-52
2023/11/15 04:29:58;;;;;;;2.60;0.50;;;;;;;6.73;100.00;99877.69;105214;1254;72482;-50
2023/11/15 04:32:25;;;;;;;3.60;0.50;;;;;;;6.72;100.00;99878.65;105182;1259;67042;-54
2023/11/15 04:34:53;;;;;;;1.90;0.50;;;;;;;6.71;100.00;99889.73;105181;1259;71352;-50
2023/11/15 04:37:21;;;;;;;1.50;0.50;;;;;;;6.70;100.00;99893.52;105247;1255;62175;-56
2023/11/15 04:39:48;;;;;;;2.40;0.70;;;;;;;6.69;100.00;99890.86;106418;1254;60103;-52
2023/11/15 04:42:18;;;;;;;1.80;0.50;;;;;;;6.68;100.00;99890.36;105236;1254;73240;-53
2023/11/15 04:44:46;;;;;;;1.10;0.50;;;;;;;6.68;100.00;99896.62;105692;1254;65219;-54
2023/11/15 04:47:14;;;;;;;3.20;0.80;;;;;;;6.66;100.00;99895.22;105324;1254;73309;-52
2023/11/15 04:49:42;;;;;;;1.70;0.70;;;;;;;6.64;100.00;99898.31;105367;1259;60586;-51
2023/11/15 04:52:10;;;;;;;1.90;0.60;;;;;;;6.62;100.00;99900.34;106546;1259;58835;-55
2023/11/15 04:54:37;;;;;;;1.90;0.70;;;;;;;6.60;100.00;99901.10;105371;1260;71528;-55
2023/11/15 04:57:05;;;;;;;0.90;0.60;;;;;;;6.60;100.00;99903.08;105452;1254;65518;-52
2023/11/15 04:59:32;;;;;;;1.40;0.50;;;;;;;6.60;100.00;99903.10;104724;1257;71900;-53
2023/11/15 05:02:00;;;;;;;2.00;0.60;;;;;;;6.60;100.00;99907.37;104661;1259;61859;-54
2023/11/15 05:04:28;;;;;;;1.70;0.60;;;;;;;6.60;100.00;99909.86;104684;1254;59845;-54
2023/11/15 05:06:56;;;;;;;2.20;1.10;;;;;;;6.61;100.00;99906.08;105290;1259;72145;-55
2023/11/15 05:09:24;;;;;;;2.00;0.90;;;;;;;6.63;100.00;99910.83;105229;1254;67589;-54
2023/11/15 05:11:51;;;;;;;5.40;0.70;;;;;;;6.65;100.00;99917.36;105299;1254;72730;-54
2023/11/15 05:14:19;;;;;;;4.50;0.70;;;;;;;6.66;100.00;99919.83;105091;1261;60448;-52
2023/11/15 05:16:46;;;;;;;1.70;0.60;;;;;;;6.68;100.00;99921.38;105340;1254;60503;-53
2023/11/15 05:19:14;;;;;;;1.70;0.70;;;;;;;6.68;100.00;99925.11;105300;1260;71745;-53
2023/11/15 05:21:41;;;;;;;2.70;0.80;;;;;;;6.69;100.00;99922.96;105280;1254;67270;-55
2023/11/15 05:24:09;;;;;;;2.70;0.70;;;;;;;6.70;100.00;99923.46;105368;1254;71602;-55
2023/11/15 05:26:38;;;;;;;1.50;0.70;;;;;;;6.71;100.00;99932.36;105184;1254;61658;-54
2023/11/15 05:29:05;;;;;;;4.00;1.40;;;;;;;6.72;100.00;99933.89;105120;1259;60425;-51
2023/11/15 05:31:33;;;;;;;4.10;1.20;;;;;;;6.73;100.00;99931.73;104932;1255;73279;-54
2023/11/15 05:34:00;;;;;;;5.30;1.70;;;;;;;6.74;100.00;99931.90;104992;1254;66752;-56
2023/11/15 05:36:28;;;;;;;5.10;1.90;;;;;;;6.76;100.00;99934.16;104863;1255;72796;-54
2023/11/15 05:38:55;;;;;;;4.10;1.10;;;;;;;6.77;100.00;99938.77;104893;1254;60758;-51
2023/11/15 05:41:23;;;;;;;8.80;2.50;;;;;;;6.79;100.00;99943.17;104691;1254;60492;-50
2023/11/15 05:43:55;;;;;;;16.00;4.50;;;;;;;6.81;100.00;99955.92;104873;1254;73952;-52
2023/11/15 05:46:23;;;;;;;13.70;4.00;;;;;;;6.83;100.00;99957.64;104857;1254;66926;-52
2023/11/15 05:48:50;;;;;;;11.10;1.90;;;;;;;6.87;100.00;99959.88;104786;1254;72169;-49
2023/11/15 05:51:18;;;;;;;12.60;1.20;;;;;;;6.89;100.00;99963.54;105147;1254;61009;-54
2023/11/15 05:53:45;;;;;;;3.90;0.90;;;;;;;6.93;100.00;99963.64;105306;1254;60479;-50
2023/11/15 05:56:13;;;;;;;3.40;0.70;;;;;;;6.95;100.00;99965.19;105350;1260;73306;-57
2023/11/15 05:58:45;;;;;;;4.30;0.80;;;;;;;6.95;100.00;99968.92;106340;1260;65726;-51
2023/11/15 06:01:13;;;;;;;2.70;0.70;;;;;;;6.97;100.00;99974.22;106170;1254;71451;-51
2023/11/15 06:03:41;;;;;;;2.30;0.80;;;;;;;6.98;100.00;99973.27;105759;1260;60727;-50
2023/11/15 06:06:09;;;;;;;2.60;0.80;;;;;;;7.00;100.00;99978.92;105913;1259;59710;-50
2023/11/15 06:08:36;;;;;;;2.70;0.70;;;;;;;7.02;100.00;99981.54;105174;1259;73899;-54
2023/11/15 06:11:04;;;;;;;2.80;0.80;;;;;;;7.04;100.00;99987.02;104992;1254;67087;-52
2023/11/15 06:13:31;;;;;;;5.50;0.90;;;;;;;7.06;100.00;99988.90;105372;1254;72298;-53
2023/11/15 06:15:59;;;;;;;3.70;1.00;;;;;;;7.09;100.00;99994.70;105230;1257;60539;-52
2023/11/15 06:18:27;;;;;;;1.40;0.90;;;;;;;7.11;100.00;99993.23;105247;1255;60345;-51
2023/11/15 06:20:55;;;;;;;0.90;0.60;;;;;;;7.14;100.00;99994.55;108908;1254;73780;-52
2023/11/15 06:23:23;;;;;;;2.50;0.70;;;;;;;7.17;100.00;99999.45;109038;1254;66905;-55
2023/11/15 06:25:50;;;;;;;1.80;0.60;;;;;;;7.20;100.00;99999.01;106034;1261;73054;-52
2023/11/15 06:28:19;;;;;;;2.30;0.70;;;;;;;7.22;100.00;100004.13;105381;1257;61623;-52
2023/11/15 06:30:48;;;;;;;1.90;0.90;;;;;;;7.24;100.00;100010.48;105273;1254;60339;-52
2023/11/15 06:33:16;;;;;;;1.30;0.70;;;;;;;7.26;100.00;100017.57;108752;1254;73824;-56
2023/11/15 06:35:46;;;;;;;1.90;0.70;;;;;;;7.27;100.00;100017.17;105602;1257;66107;-51
2023/11/15 06:38:14;;;;;;;3.40;1.70;;;;;;;7.30;100.00;100024.25;105024;1257;73535;-55
2023/11/15 06:40:41;;;;;;;1.40;0.50;;;;;;;7.32;100.00;100027.02;105340;1254;60517;-52
2023/11/15 06:43:09;;;;;;;2.00;0.60;;;;;;;7.35;100.00;100031.40;105275;1254;60322;-57
2023/11/15 06:45:36;;;;;;;4.20;0.70;;;;;;;7.38;100.00;100037.02;105332;1254;74469;-57
2023/11/15 06:48:06;;;;;;;1.70;0.60;;;;;;;7.42;100.00;100042.42;108940;1256;69067;-54
2023/11/15 06:50:34;;;;;;;2.70;0.70;;;;;;;7.46;100.00;100052.29;108881;1254;72725;-55
2023/11/15 06:53:02;;;;;;;1.40;0.80;;;;;;;7.52;100.00;100057.27;108768;1254;61702;-53
2023/11/15 06:55:29;;;;;;;2.60;0.70;;;;;;;7.59;100.00;100065.45;109045;1253;60090;-51
2023/11/15 06:57:57;;;;;;;2.10;0.80;;;;;;;7.66;100.00;100073.30;109147;1253;72659;-54
2023/11/15 07:00:25;;;;;;;3.70;1.00;;;;;;;7.71;100.00;100078.67;109195;1250;66704;-51
2023/11/15 07:02:53;;;;;;;1.70;0.70;;;;;;;7.75;100.00;100087.11;109066;1252;71443;-56
2023/11/15 07:05:22;;;;;;;4.30;0.80;;;;;;;7.79;100.00;100093.07;105798;1257;62288;-55
2023/11/15 07:07:49;;;;;;;2.40;0.90;;;;;;;7.82;100.00;100096.16;105252;1253;60578;-53
2023/11/15 07:10:17;;;;;;;4.00;0.90;;;;;;;7.86;100.00;100102.67;104818;1257;72599;-53
2023/11/15 07:12:47;;;;;;;2.40;0.90;;;;;;;7.88;100.00;100108.14;104998;1257;65673;-55
2023/11/15 07:15:16;;;;;;;5.40;1.30;;;;;;;7.91;100.00;100117.33;105054;1253;74663;-51
2023/11/15 07:17:44;;;;;;;1.40;1.00;;;;;;;7.94;100.00;100117.94;105555;1254;60924;-52
2023/11/15 07:20:13;;;;;;;6.10;1.80;;;;;;;7.97;100.00;100124.99;106470;1254;61701;-53
2023/11/15 07:22:41;;;;;;;2.90;0.70;;;;;;;8.01;100.00;100127.02;104963;1253;74397;-51
2023/11/15 07:25:09;;;;;;;4.90;0.90;;;;;;;8.05;100.00;100129.39;105109;1252;65715;-59
2023/11/15 07:27:37;;;;;;;2.60;1.00;;;;;;;8.10;100.00;100134.42;105230;1256;71484;-51
2023/11/15 07:30:07;;;;;;;3.40;1.50;;;;;;;8.15;100.00;100142.66;105630;1253;61763;-51
2023/11/15 07:32:35;;;;;;;3.40;0.90;;;;;;;8.21;100.00;100147.28;105770;1253;60502;-52
2023/11/15 07:35:08;;;;;;;3.40;0.90;;;;;;;8.26;100.00;100158.55;105799;1253;73371;-49
2023/11/15 07:37:37;;;;;;;2.10;0.80;;;;;;;8.32;100.00;100175.20;105883;1254;66111;-55
2023/11/15 07:40:10;;;;;;;2.30;0.80;;;;;;;8.38;100.00;100180.40;105807;1254;72677;-52
2023/11/15 07:42:39;;;;;;;6.00;0.90;;;;;;;8.43;100.00;100192.91;106058;1256;60556;-58
2023/11/15 07:45:08;;;;;;;4.30;0.70;;;;;;;8.48;100.00;100194.70;106541;1253;60270;-51
2023/11/15 07:47:35;;;;;;;3.30;0.70;;;;;;;8.55;100.00;100204.16;105793;1256;72614;-52
2023/11/15 07:50:04;;;;;;;4.40;0.80;;;;;;;8.61;100.00;100209.30;105456;1257;65572;-51
2023/11/15 07:52:32;;;;;;;2.20;0.70;;;;;;;8.67;100.00;100217.18;106268;1257;72042;-48
2023/11/15 07:55:00;;;;;;;3.20;0.90;;;;;;;8.70;100.00;100219.74;105592;1253;60435;-50
2023/11/15 07:57:28;;;;;;;4.50;0.80;;;;;;;8.72;100.00;100229.88;105641;1258;61062;-52
2023/11/15 07:59:56;;;;;;;2.70;1.70;;;;;;;8.72;100.00;100231.84;105376;1257;73918;-51
2023/11/15 08:02:23;;;;;;;3.10;0.90;;;;;;;8.72;100.00;100230.94;106060;1256;67379;-55
2023/11/15 08:04:51;;;;;;;7.10;1.10;;;;;;;8.73;100.00;100229.66;104901;1253;72733;-54
2023/11/15 08:07:21;;;;;;;2.60;0.80;;;;;;;8.74;100.00;100238.41;105803;1254;60871;-53
2023/11/15 08:09:49;;;;;;;2.10;0.70;;;;;;;8.74;100.00;100236.62;105487;1256;60438;-52
2023/11/15 08:12:17;;;;;;;2.00;1.00;;;;;;;8.77;100.00;100237.80;105452;1252;72639;-53
2023/11/15 08:14:44;;;;;;;5.20;0.90;;;;;;;8.79;100.00;100245.02;105392;1253;67268;-49
2023/11/15 08:17:12;;;;;;;4.90;1.70;;;;;;;8.83;100.00;100251.17;105316;1253;73076;-52
2023/11/15 08:19:39;;;;;;;7.00;0.80;;;;;;;8.89;100.00;100258.30;105210;1252;62240;-54
2023/11/15 08:22:07;;;;;;;5.30;0.80;;;;;;;8.95;100.00;100265.95;105335;1254;60686;-51
2023/11/15 08:24:36;;;;;;;2.80;0.90;;;;;;;9.02;100.00;100277.19;105239;1253;73841;-52
2023/11/15 08:27:04;;;;;;;2.40;0.70;;;;;;;9.10;100.00;100286.23;105336;1257;65751;-52
2023/11/15 08:29:31;;;;;;;3.40;0.90;;;;;;;9.18;100.00;100288.12;105351;1253;73839;-54
2023/11/15 08:31:59;;;;;;;2.90;0.70;;;;;;;9.27;100.00;100296.58;105477;1254;60568;-50
2023/11/15 08:34:26;;;;;;;3.80;0.70;;;;;;;9.34;100.00;100308.69;105063;1253;60461;-55
2023/11/15 08:36:54;;;;;;;4.30;0.90;;;;;;;9.39;100.00;100323.57;105223;1253;72637;-52
2023/11/15 08:39:22;;;;;;;1.70;0.70;;;;;;;9.44;100.00;100332.52;105210;1253;69077;-54
2023/11/15 08:41:50;;;;;;;4.00;1.00;;;;;;;9.50;100.00;100347.91;105200;1253;71442;-58
2023/11/15 08:44:18;;;;;;;6.00;1.00;;;;;;;9.56;100.00;100355.21;105204;1254;60626;-57
2023/11/15 08:46:45;;;;;;;1.90;1.00;;;;;;;9.63;100.00;100364.65;105167;1252;60600;-54
2023/11/15 08:49:15;;;;;;;3.60;0.80;;;;;;;9.68;100.00;100376.83;105273;1252;72625;-55
2023/11/15 08:51:50;;;;;;;2.50;0.80;;;;;;;9.74;100.00;100386.31;105519;1252;65907;-54
2023/11/15 08:54:18;;;;;;;4.80;0.80;;;;;;;9.83;100.00;100404.09;104840;1257;72793;-57
2023/11/15 08:56:46;;;;;;;5.10;0.80;;;;;;;9.93;100.00;100406.44;104829;1253;60524;-55
2023/11/15 08:59:15;;;;;;;3.30;0.70;;;;;;;10.02;100.00;100417.07;106671;1253;60540;-51
2023/11/15 09:01:44;;;;;;;9.80;1.00;;;;;;;10.08;100.00;100431.16;105447;1256;74063;-58
2023/11/15 09:04:12;;;;;;;4.00;0.90;;;;;;;10.13;100.00;100443.71;105466;1253;65834;-53
2023/11/15 09:06:46;;;;;;;2.90;0.90;;;;;;;10.19;100.00;100452.50;104784;1257;75094;-58
2023/11/15 09:09:16;;;;;;;5.70;1.40;;;;;;;10.26;100.00;100475.93;105761;1253;61812;-56
2023/11/15 09:11:44;;;;;;;3.70;0.70;;;;;;;10.33;100.00;100480.71;106293;1257;60405;-51
2023/11/15 09:14:14;;;;;;;5.10;0.80;;;;;;;10.39;100.00;100494.13;105355;1256;75800;-53
2023/11/15 09:16:44;;;;;;;2.60;0.70;;;;;;;10.44;100.00;100504.55;108997;1253;65794;-50
2023/11/15 09:19:16;;;;;;;4.40;0.70;;;;;;;10.47;100.00;100516.60;109031;1253;73122;-52
2023/11/15 09:21:44;;;;;;;3.80;0.70;;;;;;;10.49;100.00;100526.96;109032;1252;62371;-53
2023/11/15 09:24:18;;;;;;;3.90;0.90;;;;;;;10.50;100.00;100535.54;109013;1253;58794;-55
2023/11/15 09:26:45;;;;;;;2.80;0.80;;;;;;;10.54;100.00;100538.27;109057;1252;74332;-53
2023/11/15 09:29:13;;;;;;;3.70;0.80;;;;;;;10.58;100.00;100542.80;109004;1252;64854;-52
2023/11/15 09:31:43;;;;;;;3.60;0.90;;;;;;;10.59;100.00;100552.45;109050;1252;73123;-51
2023/11/15 09:34:11;;;;;;;2.70;0.80;;;;;;;10.60;100.00;100561.02;108977;1253;60462;-57
2023/11/15 09:36:39;;;;;;;3.50;0.90;;;;;;;10.64;100.00;100573.09;109004;1253;60387;-55
2023/11/15 09:39:09;;;;;;;2.20;0.80;;;;;;;10.69;100.00;100580.64;108980;1252;73881;-54
2023/11/15 09:41:37;;;;;;;2.60;0.70;;;;;;;10.73;100.00;100590.55;109085;1252;65735;-58
2023/11/15 09:44:09;;;;;;;3.50;1.00;;;;;;;10.77;100.00;100588.07;108978;1252;71448;-53
2023/11/15 09:46:37;;;;;;;6.20;1.60;;;;;;;10.82;100.00;100609.59;109048;1252;61136;-52
2023/11/15 09:49:05;;;;;;;4.20;0.80;;;;;;;10.88;100.00;100611.73;109062;1252;59998;-53
2023/11/15 09:51:35;;;;;;;4.80;0.80;;;;;;;10.92;100.00;100625.05;108892;1252;72585;-53
2023/11/15 09:54:03;;;;;;;4.80;1.00;;;;;;;10.97;100.00;100630.27;109020;1252;65878;-53
2023/11/15 09:56:49;;;;;;;5.20;1.00;;;;;;;10.99;100.00;100650.80;108932;1253;70449;-51
2023/11/15 09:59:18;;;;;;;3.30;0.80;;;;;;;11.01;100.00;100651.66;106263;1253;62620;-53
2023/11/15 10:01:48;;;;;;;6.60;0.70;;;;;;;11.02;100.00;100649.13;105016;1256;60335;-58
2023/11/15 10:04:23;;;;;;;2.20;0.70;;;;;;;11.02;100.00;100661.89;107680;1253;73893;-53
2023/11/15 10:06:55;;;;;;;5.50;0.90;;;;;;;11.02;100.00;100671.92;107760;1253;69515;-52
2023/11/15 10:09:39;;;;;;;2.30;0.70;;;;;;;11.04;100.00;100691.45;104979;1254;71609;-52
2023/11/15 10:12:08;;;;;;;4.00;0.90;;;;;;;11.07;100.00;100692.40;105404;1253;60352;-57
2023/11/15 10:14:52;;;;;;;2.50;1.00;;;;;;;11.09;100.00;100688.02;104459;1253;60554;-57
2023/11/15 10:17:40;;;;;;;4.80;0.80;;;;;;;11.11;100.00;100713.11;104968;1252;73915;-52
2023/11/15 10:20:22;;;;;;;2.80;0.80;;;;;;;11.12;100.00;100723.83;108756;1252;65885;-57
2023/11/15 10:22:52;;;;;;;1.60;0.60;;;;;;;11.14;100.00;100727.39;109058;1253;72688;-55
2023/11/15 10:25:20;;;;;;;4.70;1.10;;;;;;;11.13;100.00;100714.83;108710;1253;60243;-56
2023/11/15 10:27:51;;;;;;;3.00;0.90;;;;;;;11.11;100.00;100712.02;109141;1254;58801;-56
2023/11/15 10:30:22;;;;;;;3.10;0.80;;;;;;;11.09;100.00;100714.95;108968;1253;74101;-58
2023/11/15 10:32:51;;;;;;;2.80;0.70;;;;;;;11.09;100.00;100719.27;109081;1252;67048;-58
2023/11/15 10:35:29;;;;;;;6.20;0.70;;;;;;;11.09;100.00;100718.38;105330;1253;72820;-49
2023/11/15 10:37:57;;;;;;;2.40;0.70;;;;;;;11.09;100.00;100733.64;105049;1254;61006;-57
2023/11/15 10:40:30;;;;;;;3.70;1.00;;;;;;;11.10;100.00;100728.59;105068;1253;60082;-52
2023/11/15 10:43:02;;;;;;;3.20;0.80;;;;;;;11.08;100.00;100737.08;107048;1257;72154;-53
2023/11/15 10:45:31;;;;;;;2.30;0.80;;;;;;;11.08;100.00;100739.41;105165;1257;67359;-56
2023/11/15 10:48:05;;;;;;;3.70;0.80;;;;;;;11.10;100.00;100733.27;105253;1256;71278;-57
2023/11/15 10:50:34;;;;;;;2.70;1.30;;;;;;;11.10;100.00;100740.08;106057;1253;60906;-55
2023/11/15 10:53:02;;;;;;;2.10;0.90;;;;;;;11.09;100.00;100732.03;106082;1253;60834;-52
2023/11/15 10:55:30;;;;;;;1.70;0.70;;;;;;;11.08;100.00;100734.23;108239;1254;73010;-54
2023/11/15 10:58:00;;;;;;;1.20;0.60;;;;;;;11.06;100.00;100735.54;104809;1254;66514;-51
2023/11/15 11:00:30;;;;;;;3.30;0.70;;;;;;;11.05;100.00;100732.90;107006;1254;71465;-56
2023/11/15 11:02:58;;;;;;;3.60;0.90;;;;;;;11.05;100.00;100733.44;109090;1252;61138;-55
2023/11/15 11:05:32;;;;;;;8.00;1.30;;;;;;;11.06;100.00;100734.47;109129;1253;60278;-56
2023/11/15 11:08:10;;;;;;;14.70;5.90;;;;;;;11.08;100.00;100739.23;107449;1254;72673;-53
2023/11/15 11:10:42;;;;;;;4.10;1.80;;;;;;;11.10;100.00;100749.95;104742;1253;65621;-50
2023/11/15 11:13:21;;;;;;;5.80;2.00;;;;;;;11.13;100.00;100749.33;105406;1253;72755;-57
2023/11/15 11:15:49;;;;;;;2.20;1.00;;;;;;;11.17;100.00;100763.36;107166;1253;60424;-50
2023/11/15 11:18:21;;;;;;;4.10;0.80;;;;;;;11.18;100.00;100752.73;105076;1253;59336;-55
2023/11/15 11:21:01;;;;;;;2.50;1.00;;;;;;;11.19;100.00;100761.30;105144;1253;76010;-55
2023/11/15 11:23:30;;;;;;;3.50;0.60;;;;;;;11.21;100.00;100773.47;105193;1253;66466;-55
2023/11/15 11:26:34;;;;;;;3.70;0.90;;;;;;;11.22;100.00;100778.81;108015;1254;74540;-53